Time;durP1;ratioP1;P1;durP2;ratioP2;P2;SDS_P1;SDS_P2;PMS_P1;PMS_P2;Temp;Humidity;BMP_temperature;BMP_pressure;BME280_temperature;BME280_humidity;BME280_pressure;Samples;Min_cycle;Max_cycle;Signal;HPM_P1;HPM_P2
2023/03/15 08:28:31;;;;;;;3.95;0.30;;;2.40;99.90;;;;;;4861113;29;20065;-76
2023/03/15 08:30:57;;;;;;;4.38;0.60;;;2.50;99.90;;;;;;4828170;29;20050;-76
2023/03/15 08:33:22;;;;;;;3.30;0.30;;;2.60;99.90;;;;;;4815365;29;20122;-76
2023/03/15 08:35:52;;;;;;;4.13;0.50;;;2.70;99.90;;;;;;4809082;29;20181;-76
2023/03/15 08:38:18;;;;;;;4.15;0.38;;;2.80;99.90;;;;;;4834134;29;20048;-76
2023/03/15 08:40:44;;;;;;;6.50;0.50;;;2.80;99.90;;;;;;4828215;29;20077;-76
2023/03/15 08:43:09;;;;;;;3.97;0.30;;;2.90;99.90;;;;;;4819651;29;20049;-76
2023/03/15 08:45:36;;;;;;;1.37;0.40;;;3.10;99.90;;;;;;4827453;29;20060;-76
2023/03/15 08:48:01;;;;;;;2.08;0.40;;;3.20;99.90;;;;;;4855572;29;20081;-76
2023/03/15 08:50:30;;;;;;;3.40;0.33;;;3.40;99.90;;;;;;4815305;29;20114;-76
2023/03/15 08:52:56;;;;;;;9.27;0.80;;;3.50;99.90;;;;;;4847679;29;20116;-75
2023/03/15 08:55:22;;;;;;;4.77;0.53;;;3.60;99.90;;;;;;4846062;29;20044;-76
2023/03/15 08:57:48;;;;;;;4.60;0.53;;;3.70;99.90;;;;;;4838729;29;20048;-75
2023/03/15 09:03:55;;;;;;;6.78;0.70;;;3.90;99.90;;;;;;4868586;29;20040;-74
2023/03/15 09:06:21;;;;;;;7.22;1.23;;;4.00;99.90;;;;;;4851698;29;20050;-74
2023/03/15 09:08:46;;;;;;;9.90;1.53;;;4.10;99.90;;;;;;4856272;29;20409;-75
2023/03/15 09:11:12;;;;;;;11.13;0.93;;;4.30;99.90;;;;;;4828724;29;20080;-76
2023/03/15 09:13:38;;;;;;;9.57;0.90;;;4.40;99.90;;;;;;4842897;29;20048;-75
2023/03/15 09:16:04;;;;;;;7.47;0.80;;;4.50;99.90;;;;;;4854230;29;20047;-75
2023/03/15 09:18:30;;;;;;;6.13;0.70;;;4.60;99.90;;;;;;4829810;29;20405;-75
2023/03/15 09:20:56;;;;;;;11.10;0.95;;;4.70;99.90;;;;;;4827407;29;20857;-74
2023/03/15 09:23:22;;;;;;;6.23;1.13;;;4.80;99.90;;;;;;4827649;29;20203;-74
2023/03/15 09:25:48;;;;;;;7.60;0.70;;;4.80;99.90;;;;;;4814383;29;20045;-74
2023/03/15 09:28:14;;;;;;;7.68;1.00;;;4.90;99.90;;;;;;4824410;29;20083;-74
2023/03/15 09:30:40;;;;;;;5.78;0.60;;;5.10;99.90;;;;;;4815221;29;20132;-74
2023/03/15 09:33:06;;;;;;;6.50;0.77;;;5.20;99.90;;;;;;4841091;29;20149;-74
2023/03/15 09:35:32;;;;;;;5.25;0.52;;;5.30;99.90;;;;;;4821545;29;20077;-74
2023/03/15 09:37:59;;;;;;;11.40;0.80;;;5.30;99.90;;;;;;4840263;29;20551;-74
2023/03/15 09:40:29;;;;;;;7.10;0.65;;;5.30;99.90;;;;;;4823376;29;20125;-74
2023/03/15 09:43:12;;;;;;;7.90;1.00;;;5.50;99.90;;;;;;4824769;29;20050;-74
2023/03/15 09:46:09;;;;;;;6.07;0.60;;;5.70;99.90;;;;;;4836516;29;20053;-74
2023/03/15 09:49:22;;;;;;;7.65;0.70;;;6.00;99.90;;;;;;4821057;29;20058;-74
2023/03/15 09:51:54;;;;;;;7.28;0.80;;;6.30;99.90;;;;;;4813563;29;20053;-74
2023/03/15 09:54:42;;;;;;;6.50;1.20;;;6.30;99.90;;;;;;4824724;29;20577;-74
2023/03/15 09:57:17;;;;;;;7.85;1.20;;;6.40;99.90;;;;;;4829936;29;20256;-74
2023/03/15 09:59:48;;;;;;;6.90;0.95;;;6.50;99.90;;;;;;4823876;29;20087;-74
2023/03/15 10:02:25;;;;;;;11.23;1.02;;;6.40;99.90;;;;;;4838679;29;20545;-74
2023/03/15 10:05:02;;;;;;;5.78;0.70;;;6.50;99.90;;;;;;4833113;29;20513;-74
2023/03/15 10:07:28;;;;;;;7.97;0.93;;;6.50;99.90;;;;;;4824249;29;20410;-74
2023/03/15 10:09:57;;;;;;;7.17;1.00;;;6.60;99.90;;;;;;4808880;29;20041;-74
2023/03/15 10:12:42;;;;;;;11.55;1.10;;;6.70;99.90;;;;;;4840658;29;20135;-74
2023/03/15 10:15:38;;;;;;;9.68;0.98;;;6.70;99.90;;;;;;4822975;29;20447;-74
2023/03/15 10:18:30;;;;;;;9.93;1.15;;;6.70;99.90;;;;;;4827683;29;20046;-74
2023/03/15 10:21:03;;;;;;;7.18;0.70;;;6.80;99.90;;;;;;4838688;29;20133;-74
2023/03/15 10:23:37;;;;;;;5.43;0.95;;;6.80;99.90;;;;;;4823693;29;20053;-74
2023/03/15 10:26:07;;;;;;;5.50;0.82;;;6.70;99.90;;;;;;4834888;29;20529;-74
2023/03/15 10:28:36;;;;;;;8.70;1.48;;;6.70;99.90;;;;;;4823064;29;20068;-74
2023/03/15 10:31:13;;;;;;;8.55;0.80;;;6.70;99.90;;;;;;4839060;29;20446;-74
2023/03/15 10:33:40;;;;;;;9.38;1.65;;;6.70;99.90;;;;;;4826508;29;20113;-74
2023/03/15 10:36:24;;;;;;;11.88;0.80;;;6.70;99.90;;;;;;4856398;29;20038;-74
2023/03/15 10:38:50;;;;;;;5.47;0.70;;;6.70;99.90;;;;;;4822919;29;20041;-74
2023/03/15 10:41:39;;;;;;;8.10;0.90;;;6.80;99.90;;;;;;4823406;29;20037;-74
2023/03/15 10:44:24;;;;;;;6.07;1.00;;;7.00;99.90;;;;;;4824054;29;20053;-74
2023/03/15 10:47:00;;;;;;;7.70;0.95;;;7.00;92.90;;;;;;4826005;29;20060;-74
2023/03/15 10:49:37;;;;;;;5.45;0.93;;;7.00;92.40;;;;;;4836744;29;20481;-74
2023/03/15 10:52:03;;;;;;;8.23;0.85;;;7.00;90.50;;;;;;4819397;29;20049;-74
2023/03/15 10:54:32;;;;;;;6.75;0.70;;;6.90;92.50;;;;;;4835715;29;20402;-74
2023/03/15 10:57:02;;;;;;;6.18;0.57;;;6.90;89.50;;;;;;4834896;29;20051;-74
2023/03/15 10:59:34;;;;;;;8.25;1.38;;;7.00;92.60;;;;;;4825496;29;20145;-74
2023/03/15 11:02:26;;;;;;;6.50;1.05;;;7.10;94.10;;;;;;4840130;29;20577;-75
2023/03/15 11:05:01;;;;;;;8.60;1.20;;;7.20;84.00;;;;;;4822001;29;20049;-75
2023/03/15 11:07:27;;;;;;;;;;;7.30;90.90;;;;;;4839385;29;20084;-74
2023/03/15 11:10:05;;;;;;;6.93;0.70;;;7.30;86.90;;;;;;4837910;29;19967;-74
2023/03/15 11:12:33;;;;;;;7.22;1.30;;;7.30;86.90;;;;;;4822901;29;20084;-74
2023/03/15 11:15:04;;;;;;;9.55;0.95;;;7.30;85.00;;;;;;4821871;29;20049;-74
2023/03/15 11:17:33;;;;;;;5.15;0.60;;;7.30;86.10;;;;;;4824660;29;20097;-74
2023/03/15 11:20:24;;;;;;;5.53;0.75;;;7.40;83.40;;;;;;4819910;29;20516;-74
2023/03/15 11:22:52;;;;;;;6.15;0.88;;;7.40;83.10;;;;;;4840184;29;20049;-74
2023/03/15 11:25:22;;;;;;;10.20;1.00;;;7.50;85.00;;;;;;4822293;29;20046;-74
2023/03/15 11:27:52;;;;;;;5.45;0.65;;;7.60;85.60;;;;;;4837762;29;20061;-74
2023/03/15 11:30:23;;;;;;;6.07;0.63;;;7.50;83.70;;;;;;4816374;29;20045;-74
2023/03/15 11:32:49;;;;;;;6.68;0.95;;;7.40;82.10;;;;;;4825724;29;20064;-74
2023/03/15 11:35:31;;;;;;;6.90;1.00;;;7.10;83.90;;;;;;4826132;29;20133;-74
2023/03/15 11:38:02;;;;;;;7.82;1.33;;;7.00;83.90;;;;;;4831536;29;20042;-75
2023/03/15 11:40:38;;;;;;;6.00;0.90;;;6.90;86.20;;;;;;4841409;29;20053;-74
2023/03/15 11:43:46;;;;;;;7.10;0.98;;;6.90;84.70;;;;;;4842089;29;20094;-74
2023/03/15 11:46:41;;;;;;;7.82;1.17;;;6.70;85.20;;;;;;4793306;29;20104;-74
2023/03/15 11:49:13;;;;;;;10.05;1.20;;;6.50;91.50;;;;;;4827602;29;20494;-75
2023/03/15 11:51:39;;;;;;;7.60;1.15;;;6.40;91.10;;;;;;4828311;29;20145;-74
2023/03/15 11:54:17;;;;;;;7.43;0.90;;;6.30;94.20;;;;;;4841718;29;20049;-74
2023/03/15 11:56:42;;;;;;;5.65;1.02;;;6.20;94.60;;;;;;4840428;29;20078;-74
2023/03/15 11:59:11;;;;;;;6.10;0.80;;;6.30;87.10;;;;;;4838542;29;20387;-74
2023/03/15 12:01:47;;;;;;;6.25;0.90;;;6.50;83.50;;;;;;4856548;29;20077;-74
2023/03/15 12:04:32;;;;;;;9.50;1.33;;;6.70;84.30;;;;;;4825992;29;20080;-74
2023/03/15 12:07:17;;;;;;;7.40;0.80;;;6.90;82.80;;;;;;4837165;29;20134;-74
2023/03/15 12:09:51;;;;;;;7.18;0.80;;;7.20;82.00;;;;;;4839856;29;20049;-74
2023/03/15 12:12:22;;;;;;;6.10;0.80;;;7.40;79.20;;;;;;4840649;29;20171;-74
2023/03/15 12:15:02;;;;;;;9.52;0.77;;;7.40;76.50;;;;;;4840116;29;20397;-74
2023/03/15 12:17:27;;;;;;;6.78;1.02;;;7.60;78.40;;;;;;4826042;29;20486;-74
2023/03/15 12:20:13;;;;;;;8.33;1.03;;;7.70;72.80;;;;;;4855874;29;20041;-74
2023/03/15 12:22:43;;;;;;;8.25;1.10;;;7.60;74.50;;;;;;4839806;29;20141;-74
2023/03/15 12:25:16;;;;;;;5.28;0.68;;;7.60;71.10;;;;;;4826843;29;20056;-74
2023/03/15 12:27:51;;;;;;;6.85;0.77;;;7.70;71.30;;;;;;4841138;29;20137;-74
2023/03/15 12:30:34;;;;;;;3.90;0.75;;;7.80;70.50;;;;;;4822452;29;20133;-74
2023/03/15 12:33:01;;;;;;;5.18;0.73;;;7.80;70.70;;;;;;4839535;29;20480;-74
2023/03/15 12:35:37;;;;;;;5.47;0.75;;;7.90;69.70;;;;;;4839711;29;20060;-74
2023/03/15 12:38:02;;;;;;;;;;;7.90;67.90;;;;;;4827376;29;20049;-74
2023/03/15 12:40:38;;;;;;;4.50;0.67;;;7.90;66.30;;;;;;4857282;29;19927;-74
2023/03/15 12:43:04;;;;;;;5.57;0.60;;;7.60;63.50;;;;;;4840023;29;20054;-74
2023/03/15 12:45:36;;;;;;;8.27;0.83;;;7.50;66.60;;;;;;4806312;29;20042;-74
2023/03/15 12:48:22;;;;;;;12.32;1.55;;;7.60;69.60;;;;;;4824848;29;20046;-74
2023/03/15 12:50:51;;;;;;;6.15;0.70;;;7.80;73.50;;;;;;4824412;29;20497;-74
2023/03/15 12:53:37;;;;;;;5.15;0.68;;;7.80;66.50;;;;;;4824976;29;20053;-74
2023/03/15 12:56:25;;;;;;;5.75;0.70;;;7.70;63.00;;;;;;4855378;29;20049;-74
2023/03/15 12:58:58;;;;;;;4.97;1.20;;;7.70;59.00;;;;;;4841613;29;20061;-74
2023/03/15 13:01:25;;;;;;;7.95;0.63;;;7.60;63.00;;;;;;4826911;29;20049;-74
2023/03/15 13:03:57;;;;;;;5.95;0.60;;;7.70;64.30;;;;;;4841650;29;20152;-74
2023/03/15 13:06:40;;;;;;;5.53;1.15;;;7.80;66.60;;;;;;4853956;29;20069;-74
2023/03/15 13:09:06;;;;;;;6.15;0.88;;;7.90;65.20;;;;;;4830998;29;20053;-74
2023/03/15 13:11:52;;;;;;;5.17;0.83;;;7.80;61.80;;;;;;4840058;29;20053;-74
2023/03/15 13:14:20;;;;;;;6.70;0.88;;;7.80;65.60;;;;;;4839428;29;20058;-74
2023/03/15 13:16:55;;;;;;;4.57;0.68;;;7.90;66.50;;;;;;4838574;29;20079;-74
2023/03/15 13:19:40;;;;;;;6.60;0.63;;;8.00;69.20;;;;;;4824058;29;20053;-74
2023/03/15 13:22:43;;;;;;;6.80;0.75;;;8.10;68.90;;;;;;4831287;29;20110;-74
2023/03/15 13:25:24;;;;;;;4.03;0.70;;;8.10;65.00;;;;;;4828090;29;20049;-74
2023/03/15 13:28:05;;;;;;;4.15;1.05;;;8.10;63.70;;;;;;4854104;29;20080;-74
2023/03/15 13:30:38;;;;;;;5.40;0.60;;;8.00;63.50;;;;;;4839206;29;20545;-74
2023/03/15 13:33:07;;;;;;;6.47;0.95;;;8.00;64.70;;;;;;4839380;29;20061;-74
2023/03/15 13:35:44;;;;;;;7.43;1.00;;;7.80;60.40;;;;;;4838674;29;20061;-74
2023/03/15 13:38:34;;;;;;;4.55;0.60;;;7.80;63.70;;;;;;4818524;29;20554;-74
2023/03/15 13:41:03;;;;;;;3.35;0.80;;;7.80;64.60;;;;;;4823915;29;20041;-74
2023/03/15 13:43:35;;;;;;;6.55;1.25;;;7.90;65.30;;;;;;4839381;29;20053;-74
2023/03/15 13:46:01;;;;;;;7.50;0.90;;;7.90;62.90;;;;;;4839356;29;20446;-74
2023/03/15 13:48:29;;;;;;;8.87;2.10;;;7.90;65.90;;;;;;4808679;29;20132;-74
2023/03/15 13:51:01;;;;;;;6.25;0.70;;;8.00;71.20;;;;;;4822924;29;20061;-74
2023/03/15 13:53:30;;;;;;;5.55;0.90;;;8.00;65.40;;;;;;4838887;29;20110;-74
2023/03/15 13:55:56;;;;;;;5.07;0.80;;;8.20;69.70;;;;;;4821444;29;20042;-74
2023/03/15 13:58:22;;;;;;;6.20;0.90;;;8.20;70.80;;;;;;4838828;29;20409;-74
2023/03/15 14:00:57;;;;;;;7.50;0.98;;;8.30;69.20;;;;;;4837211;29;20120;-74
2023/03/15 14:03:22;;;;;;;7.65;0.43;;;8.10;63.50;;;;;;4839360;29;20080;-74
2023/03/15 14:05:51;;;;;;;8.20;1.23;;;8.10;67.60;;;;;;4840761;29;20072;-74
2023/03/15 14:08:36;;;;;;;5.80;0.90;;;8.00;62.50;;;;;;4823504;29;20061;-74
2023/03/15 14:11:17;;;;;;;10.70;0.90;;;8.10;64.90;;;;;;4854290;29;20268;-74
2023/03/15 14:13:58;;;;;;;7.00;0.82;;;8.10;67.10;;;;;;4854206;29;20529;-74
2023/03/15 14:16:42;;;;;;;6.05;1.42;;;8.20;68.70;;;;;;4854108;29;20470;-74
2023/03/15 14:19:18;;;;;;;5.47;0.70;;;8.20;69.30;;;;;;4824632;29;20045;-74
2023/03/15 14:21:50;;;;;;;6.78;0.60;;;8.10;65.90;;;;;;4838291;29;20048;-74
2023/03/15 14:24:31;;;;;;;4.97;0.52;;;8.00;67.30;;;;;;4838738;29;20061;-74
2023/03/15 14:26:59;;;;;;;7.93;0.70;;;8.00;71.50;;;;;;4853092;29;20625;-74
2023/03/15 14:29:30;;;;;;;3.90;0.60;;;8.10;74.00;;;;;;4851620;29;20589;-74
2023/03/15 14:32:06;;;;;;;7.60;1.13;;;8.10;70.30;;;;;;4819704;29;21058;-74
2023/03/15 14:34:44;;;;;;;4.30;0.55;;;8.10;72.80;;;;;;4824851;29;20424;-74
2023/03/15 14:37:35;;;;;;;2.85;0.57;;;8.10;71.40;;;;;;4856303;29;20142;-74
2023/03/15 14:40:19;;;;;;;5.65;0.80;;;8.10;68.30;;;;;;4836015;29;20046;-75
2023/03/15 14:42:46;;;;;;;10.60;1.00;;;8.00;69.50;;;;;;4835479;29;20045;-75
2023/03/15 14:45:13;;;;;;;6.57;0.82;;;8.00;71.30;;;;;;4806887;29;20405;-75
2023/03/15 14:47:45;;;;;;;7.10;1.05;;;7.90;71.90;;;;;;4822523;29;20069;-74
2023/03/15 14:50:19;;;;;;;5.07;0.60;;;8.00;75.30;;;;;;4847187;29;20046;-74
2023/03/15 14:52:48;;;;;;;4.93;0.98;;;8.10;71.10;;;;;;4838673;29;20045;-74
2023/03/15 14:55:18;;;;;;;5.45;0.93;;;8.20;72.30;;;;;;4819276;29;20739;-74
2023/03/15 14:57:44;;;;;;;7.22;1.00;;;8.10;69.60;;;;;;4852951;29;20048;-74
2023/03/15 15:00:17;;;;;;;5.20;0.65;;;8.10;71.60;;;;;;4817074;29;20045;-75
2023/03/15 15:02:44;;;;;;;3.42;0.60;;;8.10;71.70;;;;;;4830918;29;20052;-75
2023/03/15 15:05:26;;;;;;;5.20;0.90;;;8.20;72.60;;;;;;4825620;29;20093;-74
2023/03/15 15:07:57;;;;;;;4.78;0.95;;;8.20;69.20;;;;;;4842281;29;20450;-74
2023/03/15 15:10:24;;;;;;;5.85;0.60;;;8.00;70.70;;;;;;4845894;29;20254;-74
2023/03/15 15:12:50;;;;;;;7.80;1.00;;;8.10;70.30;;;;;;4842195;29;20064;-74
2023/03/15 15:15:20;;;;;;;6.07;0.70;;;8.00;69.60;;;;;;4836563;29;20036;-74
2023/03/15 15:17:47;;;;;;;8.35;0.90;;;7.90;70.10;;;;;;4845687;29;20099;-75
2023/03/15 15:20:14;;;;;;;8.20;0.90;;;7.70;71.70;;;;;;4826938;29;20055;-75
2023/03/15 15:22:44;;;;;;;5.50;0.88;;;7.70;73.90;;;;;;4842130;29;20094;-74
2023/03/15 15:25:18;;;;;;;10.48;1.25;;;7.70;76.00;;;;;;4839579;29;20037;-75
2023/03/15 15:27:45;;;;;;;6.40;0.82;;;7.70;73.10;;;;;;4840090;29;20383;-74
2023/03/15 15:30:20;;;;;;;6.10;0.85;;;7.80;76.30;;;;;;4841349;29;20046;-74
2023/03/15 15:32:46;;;;;;;4.10;0.73;;;7.80;73.10;;;;;;4831131;29;20056;-74
2023/03/15 15:35:14;;;;;;;5.82;0.93;;;7.80;72.10;;;;;;4810923;29;20538;-75
2023/03/15 15:37:40;;;;;;;8.52;1.25;;;7.90;74.00;;;;;;4820914;29;20185;-74
2023/03/15 15:40:14;;;;;;;6.57;0.90;;;8.10;75.70;;;;;;4828765;29;20050;-74
2023/03/15 15:42:40;;;;;;;4.63;0.90;;;8.20;72.10;;;;;;4823467;29;20041;-74
2023/03/15 15:45:16;;;;;;;5.10;1.20;;;8.20;66.40;;;;;;4827172;29;20049;-74
2023/03/15 15:47:42;;;;;;;7.53;1.25;;;8.10;67.80;;;;;;4833165;29;20045;-74
2023/03/15 15:50:11;;;;;;;6.88;0.80;;;8.00;70.20;;;;;;4814505;29;20041;-75
2023/03/15 15:52:39;;;;;;;7.55;1.20;;;8.10;70.90;;;;;;4825175;29;20132;-74
2023/03/15 15:55:22;;;;;;;5.40;1.17;;;8.20;71.00;;;;;;4847862;29;20136;-74
2023/03/15 15:57:49;;;;;;;7.38;1.00;;;8.10;69.70;;;;;;4851718;29;20328;-75
2023/03/15 16:00:24;;;;;;;8.95;1.00;;;8.00;68.90;;;;;;4835300;29;20126;-75
2023/03/15 16:02:54;;;;;;;6.13;1.10;;;7.90;69.50;;;;;;4845663;29;20051;-75
2023/03/15 16:05:22;;;;;;;4.82;0.85;;;7.90;71.90;;;;;;4842331;29;20656;-75
2023/03/15 16:07:50;;;;;;;7.15;0.88;;;7.90;71.30;;;;;;4824827;29;20057;-75
2023/03/15 16:10:29;;;;;;;5.97;1.00;;;7.80;70.10;;;;;;4833139;29;20104;-75
2023/03/15 16:12:56;;;;;;;5.05;0.73;;;7.70;73.30;;;;;;4838776;29;20531;-75
2023/03/15 16:15:21;;;;;;;7.13;1.00;;;7.70;75.10;;;;;;4823527;29;20065;-74
2023/03/15 16:17:47;;;;;;;5.80;1.00;;;7.60;71.70;;;;;;4810040;29;20076;-76
2023/03/15 16:20:14;;;;;;;10.00;1.17;;;7.50;73.80;;;;;;4840414;29;20095;-75
2023/03/15 16:22:44;;;;;;;6.43;1.00;;;7.30;72.80;;;;;;4826923;29;20499;-75
2023/03/15 16:25:16;;;;;;;6.90;0.70;;;7.20;71.40;;;;;;4839246;29;20064;-75
2023/03/15 16:27:43;;;;;;;6.15;1.13;;;7.00;72.30;;;;;;4839107;29;20069;-75
2023/03/15 16:30:21;;;;;;;8.52;0.90;;;6.90;73.60;;;;;;4840682;29;20073;-75
2023/03/15 16:32:47;;;;;;;8.30;1.23;;;6.70;74.10;;;;;;4820227;29;20034;-75
2023/03/15 16:35:16;;;;;;;5.57;0.90;;;6.60;74.30;;;;;;4834617;29;20122;-75
2023/03/15 16:37:43;;;;;;;5.65;0.75;;;6.50;76.60;;;;;;4832074;29;20289;-75
2023/03/15 16:40:24;;;;;;;7.18;0.80;;;6.40;76.00;;;;;;4820982;29;20509;-75
2023/03/15 16:42:49;;;;;;;8.65;1.38;;;6.30;77.60;;;;;;4822025;29;20056;-75
2023/03/15 16:45:15;;;;;;;7.20;1.10;;;6.20;77.70;;;;;;4839843;29;20049;-75
2023/03/15 16:47:41;;;;;;;6.03;1.00;;;6.10;77.60;;;;;;4810706;29;20041;-75
2023/03/15 16:50:07;;;;;;;5.50;0.90;;;6.00;77.80;;;;;;4825880;29;20072;-75
2023/03/15 16:52:33;;;;;;;6.03;1.00;;;5.90;79.20;;;;;;4839686;29;20049;-75
2023/03/15 16:55:00;;;;;;;5.80;0.87;;;5.80;79.90;;;;;;4840132;29;20351;-74
2023/03/15 16:57:26;;;;;;;6.20;0.65;;;5.70;81.00;;;;;;4841099;29;20133;-75
2023/03/15 16:59:52;;;;;;;5.97;0.97;;;5.70;81.40;;;;;;4823811;29;20588;-75
2023/03/15 17:02:26;;;;;;;6.22;0.93;;;5.50;82.30;;;;;;4841200;29;20290;-75
2023/03/15 17:04:52;;;;;;;6.43;0.80;;;5.50;83.40;;;;;;4836341;29;20052;-75
2023/03/15 17:07:24;;;;;;;5.70;0.80;;;5.40;84.80;;;;;;4837650;29;20034;-75
2023/03/15 17:09:50;;;;;;;5.70;1.05;;;5.30;85.60;;;;;;4836933;29;20159;-75
2023/03/15 17:12:23;;;;;;;14.00;1.20;;;5.20;86.30;;;;;;4822532;29;20125;-75
2023/03/15 17:14:49;;;;;;;2.55;0.57;;;5.10;87.10;;;;;;4823131;29;20085;-75
2023/03/15 17:17:15;;;;;;;6.00;1.15;;;5.00;88.10;;;;;;4853813;29;20037;-75
2023/03/15 17:19:41;;;;;;;5.40;0.70;;;5.00;88.90;;;;;;4821328;29;20048;-75
2023/03/15 17:22:07;;;;;;;4.37;0.80;;;4.90;89.80;;;;;;4839371;29;20045;-75
2023/03/15 17:24:33;;;;;;;5.93;1.08;;;4.80;90.40;;;;;;4836850;29;20401;-74
2023/03/15 17:26:59;;;;;;;6.35;0.82;;;4.70;91.10;;;;;;4818922;29;20066;-74
2023/03/15 17:29:25;;;;;;;4.50;0.83;;;4.60;91.70;;;;;;4816438;29;20237;-75
2023/03/15 17:31:50;;;;;;;4.40;0.80;;;4.50;92.50;;;;;;4839520;29;20041;-75
2023/03/15 17:34:16;;;;;;;5.07;0.83;;;4.40;93.30;;;;;;4838547;29;20707;-75
2023/03/15 17:36:42;;;;;;;9.23;0.80;;;4.30;93.70;;;;;;4824563;29;20048;-74
2023/03/15 17:39:14;;;;;;;3.30;0.57;;;4.30;94.30;;;;;;4807834;29;20109;-74
2023/03/15 17:41:45;;;;;;;6.20;0.90;;;4.20;94.80;;;;;;4821175;29;20099;-75
2023/03/15 17:44:11;;;;;;;7.10;1.70;;;4.10;95.30;;;;;;4838347;29;20413;-75
2023/03/15 17:46:36;;;;;;;5.60;1.47;;;4.00;95.90;;;;;;4838607;29;20045;-75
2023/03/15 17:49:04;;;;;;;5.33;1.10;;;3.90;96.80;;;;;;4838308;29;20537;-74
2023/03/15 17:51:33;;;;;;;6.38;0.95;;;3.70;97.80;;;;;;4838639;29;20041;-74
2023/03/15 17:54:00;;;;;;;6.00;0.90;;;3.60;98.30;;;;;;4854220;29;20081;-74
2023/03/15 17:56:27;;;;;;;5.45;0.80;;;3.50;99.60;;;;;;4825084;29;20070;-74
2023/03/15 17:58:53;;;;;;;6.38;0.68;;;3.40;99.90;;;;;;4840672;29;20767;-74
2023/03/15 18:01:22;;;;;;;4.57;0.60;;;3.40;99.90;;;;;;4835214;29;20037;-74
2023/03/15 18:03:51;;;;;;;4.55;1.23;;;3.30;99.90;;;;;;4841170;29;20438;-74
2023/03/15 18:06:18;;;;;;;4.53;0.80;;;3.30;99.90;;;;;;4825683;29;20045;-74
2023/03/15 18:08:44;;;;;;;5.57;0.90;;;3.20;99.90;;;;;;4826348;29;20049;-75
2023/03/15 18:11:23;;;;;;;4.40;1.00;;;3.10;99.90;;;;;;4836880;29;20057;-76
2023/03/15 18:13:52;;;;;;;3.65;0.50;;;3.10;99.90;;;;;;4827386;29;20041;-76
2023/03/15 18:16:18;;;;;;;3.72;0.52;;;3.00;99.90;;;;;;4827896;29;20045;-75
2023/03/15 18:18:44;;;;;;;4.20;1.02;;;3.00;99.90;;;;;;4819810;29;20082;-75
2023/03/15 18:21:18;;;;;;;3.80;0.73;;;2.90;99.90;;;;;;4841952;29;20111;-75
2023/03/15 18:23:44;;;;;;;5.40;0.85;;;2.90;99.90;;;;;;4831365;29;20293;-76
2023/03/15 18:26:11;;;;;;;3.25;0.85;;;2.80;99.90;;;;;;4833870;29;20042;-75
2023/03/15 18:28:39;;;;;;;4.07;0.80;;;2.80;99.90;;;;;;4828713;29;20132;-75
2023/03/15 18:31:16;;;;;;;7.53;1.40;;;2.80;99.90;;;;;;4834649;29;20048;-75
2023/03/15 18:33:43;;;;;;;5.15;0.70;;;2.70;99.90;;;;;;4816748;29;20046;-75
2023/03/15 18:36:10;;;;;;;6.70;0.80;;;2.60;99.90;;;;;;4812407;29;20050;-74
2023/03/15 18:38:37;;;;;;;2.30;0.50;;;2.60;99.90;;;;;;4838000;29;20046;-75
2023/03/15 18:41:03;;;;;;;9.43;0.90;;;2.50;99.90;;;;;;4826122;29;20454;-75
2023/03/15 18:43:29;;;;;;;4.70;0.80;;;2.50;99.90;;;;;;4836135;29;20414;-75
2023/03/15 18:45:55;;;;;;;3.60;0.70;;;2.50;99.90;;;;;;4837131;29;20045;-76
2023/03/15 18:48:21;;;;;;;5.35;0.68;;;2.40;99.90;;;;;;4840558;29;20060;-75
2023/03/15 18:50:48;;;;;;;2.03;0.60;;;2.40;99.90;;;;;;4843204;29;20053;-75
2023/03/15 18:53:13;;;;;;;4.75;1.00;;;2.30;99.90;;;;;;4857867;29;20046;-75
2023/03/15 18:55:39;;;;;;;4.15;0.95;;;2.30;99.90;;;;;;4838504;29;20042;-75
2023/03/15 18:58:11;;;;;;;10.73;1.03;;;2.30;99.90;;;;;;4821340;29;20037;-75
2023/03/15 19:00:38;;;;;;;6.00;1.10;;;2.20;99.90;;;;;;4826576;29;20042;-75
2023/03/15 19:03:05;;;;;;;4.35;0.88;;;2.20;99.90;;;;;;4841359;29;20525;-75
2023/03/15 19:05:33;;;;;;;7.10;1.95;;;2.10;99.90;;;;;;4842236;29;20065;-75
2023/03/15 19:07:59;;;;;;;26.95;13.18;;;2.10;99.90;;;;;;4858504;29;20060;-75
2023/03/15 19:10:26;;;;;;;19.67;10.00;;;2.10;99.90;;;;;;4840809;29;20045;-75
2023/03/15 19:12:52;;;;;;;10.77;4.50;;;2.00;99.90;;;;;;4840571;29;20170;-75
2023/03/15 19:15:20;;;;;;;10.70;4.00;;;2.00;99.90;;;;;;4827434;29;20045;-75
2023/03/15 19:17:48;;;;;;;16.05;5.50;;;2.00;99.90;;;;;;4826556;29;20041;-76
2023/03/15 19:20:15;;;;;;;8.60;3.70;;;2.00;99.90;;;;;;4824245;29;20041;-75
2023/03/15 19:22:44;;;;;;;13.05;6.10;;;2.00;99.90;;;;;;4839022;29;20057;-75
2023/03/15 19:25:12;;;;;;;9.57;3.65;;;1.90;99.90;;;;;;4834360;29;20530;-76
2023/03/15 19:27:39;;;;;;;17.35;8.45;;;1.90;99.90;;;;;;4825494;29;20069;-75
2023/03/15 19:30:06;;;;;;;19.30;9.82;;;1.90;99.90;;;;;;4840114;29;20137;-75
2023/03/15 19:32:32;;;;;;;16.58;8.02;;;1.90;99.90;;;;;;4838495;29;20041;-75
2023/03/15 19:34:58;;;;;;;13.20;6.07;;;1.90;99.90;;;;;;4838092;29;20052;-75
2023/03/15 19:37:24;;;;;;;10.63;5.73;;;1.90;99.90;;;;;;4836020;29;20442;-76
2023/03/15 19:39:50;;;;;;;12.67;6.03;;;2.00;99.90;;;;;;4829954;29;20053;-76
2023/03/15 19:42:16;;;;;;;10.80;5.27;;;1.90;99.90;;;;;;4826603;29;20046;-75
2023/03/15 19:44:42;;;;;;;7.43;3.50;;;1.90;99.90;;;;;;4815762;29;20425;-75
2023/03/15 19:47:08;;;;;;;9.85;3.50;;;1.90;99.90;;;;;;4845212;29;20294;-76
2023/03/15 19:49:35;;;;;;;8.15;3.15;;;1.90;99.90;;;;;;4825532;29;20070;-76
2023/03/15 19:52:01;;;;;;;10.80;3.38;;;1.90;99.90;;;;;;4847297;29;20098;-75
2023/03/15 19:54:29;;;;;;;8.68;3.33;;;1.90;99.90;;;;;;4830918;29;20049;-76
2023/03/15 19:56:57;;;;;;;7.30;2.92;;;1.90;99.90;;;;;;4829530;29;20081;-75
2023/03/15 19:59:24;;;;;;;8.27;3.38;;;1.90;99.90;;;;;;4844150;29;20341;-76
2023/03/15 20:01:49;;;;;;;6.93;5.00;;;1.90;99.90;;;;;;4843708;29;20102;-77
2023/03/15 20:04:15;;;;;;;8.73;5.97;;;1.90;99.90;;;;;;4829276;29;20498;-76
2023/03/15 20:06:41;;;;;;;10.07;5.40;;;1.90;99.90;;;;;;4827254;29;20045;-75
2023/03/15 20:09:07;;;;;;;10.93;4.80;;;1.90;99.90;;;;;;4828787;29;20056;-76
2023/03/15 20:11:33;;;;;;;7.73;3.97;;;1.90;99.90;;;;;;4827678;29;20046;-75
2023/03/15 20:14:01;;;;;;;7.40;3.50;;;1.90;99.90;;;;;;4843221;29;20352;-75
2023/03/15 20:16:26;;;;;;;6.03;2.60;;;1.90;99.90;;;;;;4812083;29;20116;-75
2023/03/15 20:18:54;;;;;;;7.00;2.60;;;1.90;99.90;;;;;;4840968;29;20486;-75
2023/03/15 20:21:20;;;;;;;6.30;2.67;;;1.90;99.90;;;;;;4825341;29;20791;-75
2023/03/15 20:23:47;;;;;;;8.45;2.75;;;1.90;99.90;;;;;;4812297;29;20045;-75
2023/03/15 20:26:15;;;;;;;11.10;5.15;;;1.90;99.90;;;;;;4823901;29;20045;-75
2023/03/15 20:28:43;;;;;;;6.68;3.30;;;1.90;99.90;;;;;;4831428;29;20109;-75
2023/03/15 20:31:17;;;;;;;8.10;4.00;;;1.90;99.90;;;;;;4843991;29;20046;-75
2023/03/15 20:33:44;;;;;;;7.47;4.13;;;1.90;99.90;;;;;;4839750;29;20543;-75
2023/03/15 20:36:10;;;;;;;7.65;4.22;;;1.90;99.90;;;;;;4824019;29;20046;-75
2023/03/15 20:38:36;;;;;;;9.20;4.70;;;1.90;99.90;;;;;;4841036;29;20060;-75
2023/03/15 20:41:04;;;;;;;7.78;4.55;;;1.90;99.90;;;;;;4825210;29;20048;-75
2023/03/15 20:43:31;;;;;;;26.90;12.85;;;1.90;99.90;;;;;;4852622;29;20056;-75
2023/03/15 20:45:59;;;;;;;10.07;5.10;;;1.90;99.90;;;;;;4811180;29;20506;-75
2023/03/15 20:48:29;;;;;;;9.98;3.85;;;1.90;99.90;;;;;;4824824;29;20060;-75
2023/03/15 20:51:02;;;;;;;6.45;3.90;;;1.90;99.90;;;;;;4840396;29;20056;-75
2023/03/15 20:53:29;;;;;;;7.90;3.78;;;1.90;99.90;;;;;;4823614;29;20050;-75
2023/03/15 20:55:55;;;;;;;8.93;4.10;;;1.80;99.90;;;;;;4825536;29;20049;-75
2023/03/15 20:58:22;;;;;;;9.40;4.22;;;1.90;99.90;;;;;;4839270;29;20113;-75
2023/03/15 21:00:48;;;;;;;7.47;3.75;;;1.90;99.90;;;;;;4840970;29;20071;-75
2023/03/15 21:03:16;;;;;;;8.73;4.10;;;1.90;99.90;;;;;;4823164;29;20094;-75
2023/03/15 21:05:44;;;;;;;7.05;4.00;;;1.90;99.90;;;;;;4835967;29;20232;-75
2023/03/15 21:08:12;;;;;;;7.13;3.97;;;1.90;99.90;;;;;;4854811;29;20069;-75
2023/03/15 21:10:39;;;;;;;7.30;3.85;;;1.90;99.90;;;;;;4840324;29;20058;-75
2023/03/15 21:13:09;;;;;;;7.82;3.65;;;1.90;99.90;;;;;;4839736;29;20045;-75
2023/03/15 21:15:44;;;;;;;7.32;3.40;;;1.90;99.90;;;;;;4811470;29;20503;-75
2023/03/15 21:18:12;;;;;;;7.60;3.33;;;1.90;99.90;;;;;;4838044;29;20042;-75
2023/03/15 21:20:38;;;;;;;10.07;3.55;;;1.90;99.90;;;;;;4840057;29;20718;-75
2023/03/15 21:23:07;;;;;;;7.30;3.43;;;1.90;99.90;;;;;;4823113;29;20045;-74
2023/03/15 21:25:33;;;;;;;7.25;3.60;;;1.90;99.90;;;;;;4823986;29;20041;-75
2023/03/15 21:27:59;;;;;;;7.53;2.80;;;1.90;99.90;;;;;;4830107;29;20581;-75
2023/03/15 21:30:25;;;;;;;7.40;3.50;;;1.90;99.90;;;;;;4839459;29;20080;-75
2023/03/15 21:32:52;;;;;;;10.15;4.13;;;1.90;99.90;;;;;;4808183;29;20041;-75
2023/03/15 21:35:20;;;;;;;7.55;3.60;;;1.80;99.90;;;;;;4806842;29;20042;-75
2023/03/15 21:37:47;;;;;;;5.70;2.72;;;1.80;99.90;;;;;;4836811;29;20052;-75
2023/03/15 21:40:14;;;;;;;8.15;3.15;;;1.70;99.90;;;;;;4851686;29;20043;-75
2023/03/15 21:42:42;;;;;;;10.43;3.28;;;1.70;99.90;;;;;;4836384;29;20670;-75
2023/03/15 21:45:10;;;;;;;7.38;3.13;;;1.70;99.90;;;;;;4822560;29;20052;-75